sensor_id;sensor_type;location;lat;lon;timestamp;P1;durP1;ratioP1;P2;durP2;ratioP2
25169;SDS011;13129;48.012;10.352;2022-12-07T05:03:43;18.98;;;13.52;;
25169;SDS011;13129;48.012;10.352;2022-12-07T05:06:09;21.10;;;15.27;;
25169;SDS011;13129;48.012;10.352;2022-12-07T05:08:36;21.85;;;16.25;;
25169;SDS011;13129;48.012;10.352;2022-12-07T05:11:02;20.33;;;15.23;;
25169;SDS011;13129;48.012;10.352;2022-12-07T05:13:28;19.48;;;15.23;;
25169;SDS011;13129;48.012;10.352;2022-12-07T05:15:54;19.77;;;14.18;;
25169;SDS011;13129;48.012;10.352;2022-12-07T05:18:20;19.77;;;15.25;;
25169;SDS011;13129;48.012;10.352;2022-12-07T05:20:46;20.85;;;15.52;;
25169;SDS011;13129;48.012;10.352;2022-12-07T05:23:12;22.27;;;15.43;;
25169;SDS011;13129;48.012;10.352;2022-12-07T05:28:07;19.15;;;14.20;;
25169;SDS011;13129;48.012;10.352;2022-12-07T05:30:33;18.02;;;13.52;;
25169;SDS011;13129;48.012;10.352;2022-12-07T05:32:59;18.77;;;14.85;;
25169;SDS011;13129;48.012;10.352;2022-12-07T05:35:25;19.33;;;15.02;;
25169;SDS011;13129;48.012;10.352;2022-12-07T05:37:50;19.95;;;14.18;;
25169;SDS011;13129;48.012;10.352;2022-12-07T05:40:16;20.15;;;15.18;;
25169;SDS011;13129;48.012;10.352;2022-12-07T05:42:43;20.67;;;14.48;;
25169;SDS011;13129;48.012;10.352;2022-12-07T05:45:10;22.52;;;15.63;;
25169;SDS011;13129;48.012;10.352;2022-12-07T05:47:36;21.75;;;15.63;;
25169;SDS011;13129;48.012;10.352;2022-12-07T05:50:02;20.30;;;14.45;;
25169;SDS011;13129;48.012;10.352;2022-12-07T05:52:29;22.50;;;15.30;;
25169;SDS011;13129;48.012;10.352;2022-12-07T05:54:55;21.77;;;14.95;;
25169;SDS011;13129;48.012;10.352;2022-12-07T05:57:21;21.77;;;15.13;;
25169;SDS011;13129;48.012;10.352;2022-12-07T05:59:47;19.17;;;12.70;;
25169;SDS011;13129;48.012;10.352;2022-12-07T06:02:13;15.40;;;12.23;;
25169;SDS011;13129;48.012;10.352;2022-12-07T06:04:42;17.65;;;12.48;;
25169;SDS011;13129;48.012;10.352;2022-12-07T06:07:11;14.63;;;11.38;;
25169;SDS011;13129;48.012;10.352;2022-12-07T06:09:37;16.25;;;11.70;;
25169;SDS011;13129;48.012;10.352;2022-12-07T06:12:04;16.40;;;11.93;;
25169;SDS011;13129;48.012;10.352;2022-12-07T06:14:49;16.80;;;12.30;;
25169;SDS011;13129;48.012;10.352;2022-12-07T06:17:15;17.08;;;12.95;;
25169;SDS011;13129;48.012;10.352;2022-12-07T06:19:41;17.35;;;13.20;;
25169;SDS011;13129;48.012;10.352;2022-12-07T06:22:07;15.73;;;11.95;;
25169;SDS011;13129;48.012;10.352;2022-12-07T06:24:34;16.98;;;12.82;;
25169;SDS011;13129;48.012;10.352;2022-12-07T06:27:00;17.65;;;12.60;;
25169;SDS011;13129;48.012;10.352;2022-12-07T06:29:26;16.63;;;12.35;;
25169;SDS011;13129;48.012;10.352;2022-12-07T06:31:52;16.73;;;12.82;;
25169;SDS011;13129;48.012;10.352;2022-12-07T06:34:18;16.75;;;13.00;;
25169;SDS011;13129;48.012;10.352;2022-12-07T06:44:34;17.67;;;13.23;;
25169;SDS011;13129;48.012;10.352;2022-12-07T06:47:00;20.42;;;13.27;;
25169;SDS011;13129;48.012;10.352;2022-12-07T06:49:25;23.92;;;15.90;;
25169;SDS011;13129;48.012;10.352;2022-12-07T06:51:51;21.35;;;15.45;;
25169;SDS011;13129;48.012;10.352;2022-12-07T06:54:17;22.05;;;14.57;;
25169;SDS011;13129;48.012;10.352;2022-12-07T06:58:14;27.98;;;22.25;;
25169;SDS011;13129;48.012;10.352;2022-12-07T07:00:40;28.40;;;19.30;;
25169;SDS011;13129;48.012;10.352;2022-12-07T07:03:06;26.13;;;18.52;;
25169;SDS011;13129;48.012;10.352;2022-12-07T07:05:32;25.80;;;20.15;;
25169;SDS011;13129;48.012;10.352;2022-12-07T07:07:58;29.50;;;20.95;;
25169;SDS011;13129;48.012;10.352;2022-12-07T07:10:24;28.30;;;22.55;;
25169;SDS011;13129;48.012;10.352;2022-12-07T07:15:15;21.00;;;16.13;;
25169;SDS011;13129;48.012;10.352;2022-12-07T07:17:41;20.92;;;14.77;;
25169;SDS011;13129;48.012;10.352;2022-12-07T07:20:06;22.67;;;14.82;;
25169;SDS011;13129;48.012;10.352;2022-12-07T07:22:33;21.20;;;14.88;;
25169;SDS011;13129;48.012;10.352;2022-12-07T07:24:59;21.52;;;14.60;;
25169;SDS011;13129;48.012;10.352;2022-12-07T07:27:25;22.10;;;14.98;;
25169;SDS011;13129;48.012;10.352;2022-12-07T07:29:50;24.20;;;14.93;;
25169;SDS011;13129;48.012;10.352;2022-12-07T07:32:16;24.20;;;16.17;;
25169;SDS011;13129;48.012;10.352;2022-12-07T07:34:42;22.42;;;15.13;;
25169;SDS011;13129;48.012;10.352;2022-12-07T07:37:08;25.63;;;16.02;;
25169;SDS011;13129;48.012;10.352;2022-12-07T07:39:36;23.38;;;15.15;;
25169;SDS011;13129;48.012;10.352;2022-12-07T07:42:01;24.67;;;16.05;;
25169;SDS011;13129;48.012;10.352;2022-12-07T07:44:27;24.02;;;16.77;;
25169;SDS011;13129;48.012;10.352;2022-12-07T07:48:15;24.98;;;15.55;;
25169;SDS011;13129;48.012;10.352;2022-12-07T07:50:42;21.75;;;15.30;;
25169;SDS011;13129;48.012;10.352;2022-12-07T07:55:56;19.17;;;13.10;;
25169;SDS011;13129;48.012;10.352;2022-12-07T07:58:58;21.58;;;14.50;;
25169;SDS011;13129;48.012;10.352;2022-12-07T08:01:24;23.13;;;15.77;;
25169;SDS011;13129;48.012;10.352;2022-12-07T08:05:33;23.08;;;16.00;;
25169;SDS011;13129;48.012;10.352;2022-12-07T08:07:59;22.60;;;16.55;;
25169;SDS011;13129;48.012;10.352;2022-12-07T08:10:25;22.05;;;15.55;;
25169;SDS011;13129;48.012;10.352;2022-12-07T08:12:51;21.63;;;15.40;;
25169;SDS011;13129;48.012;10.352;2022-12-07T08:15:36;21.77;;;15.80;;
25169;SDS011;13129;48.012;10.352;2022-12-07T08:18:03;24.38;;;18.45;;
25169;SDS011;13129;48.012;10.352;2022-12-07T08:20:30;31.75;;;23.60;;
25169;SDS011;13129;48.012;10.352;2022-12-07T08:22:58;30.27;;;22.45;;
25169;SDS011;13129;48.012;10.352;2022-12-07T08:25:24;70.93;;;48.45;;
25169;SDS011;13129;48.012;10.352;2022-12-07T08:27:51;50.78;;;34.20;;
25169;SDS011;13129;48.012;10.352;2022-12-07T08:30:16;41.58;;;29.25;;
25169;SDS011;13129;48.012;10.352;2022-12-07T08:32:46;28.42;;;18.92;;
25169;SDS011;13129;48.012;10.352;2022-12-07T08:35:13;26.02;;;17.83;;
25169;SDS011;13129;48.012;10.352;2022-12-07T08:37:40;24.50;;;18.48;;
25169;SDS011;13129;48.012;10.352;2022-12-07T08:40:07;28.48;;;19.15;;
25169;SDS011;13129;48.012;10.352;2022-12-07T08:42:34;27.63;;;18.15;;
25169;SDS011;13129;48.012;10.352;2022-12-07T08:47:31;24.92;;;17.35;;
25169;SDS011;13129;48.012;10.352;2022-12-07T08:49:58;23.77;;;16.15;;
25169;SDS011;13129;48.012;10.352;2022-12-07T08:52:28;24.85;;;17.67;;
25169;SDS011;13129;48.012;10.352;2022-12-07T08:54:55;27.23;;;18.45;;
25169;SDS011;13129;48.012;10.352;2022-12-07T08:57:21;23.02;;;17.02;;
25169;SDS011;13129;48.012;10.352;2022-12-07T08:59:47;28.10;;;17.98;;
25169;SDS011;13129;48.012;10.352;2022-12-07T09:02:13;26.50;;;17.25;;
25169;SDS011;13129;48.012;10.352;2022-12-07T09:04:38;27.55;;;18.00;;
25169;SDS011;13129;48.012;10.352;2022-12-07T09:07:04;24.48;;;16.98;;
25169;SDS011;13129;48.012;10.352;2022-12-07T09:09:30;25.40;;;17.30;;
25169;SDS011;13129;48.012;10.352;2022-12-07T09:11:56;29.15;;;18.58;;
25169;SDS011;13129;48.012;10.352;2022-12-07T09:14:22;26.13;;;17.15;;
25169;SDS011;13129;48.012;10.352;2022-12-07T09:16:47;25.13;;;16.33;;
25169;SDS011;13129;48.012;10.352;2022-12-07T09:19:13;25.30;;;16.45;;
25169;SDS011;13129;48.012;10.352;2022-12-07T09:21:39;27.90;;;18.23;;
25169;SDS011;13129;48.012;10.352;2022-12-07T09:24:04;18.83;;;14.45;;
25169;SDS011;13129;48.012;10.352;2022-12-07T09:26:30;22.00;;;15.32;;
25169;SDS011;13129;48.012;10.352;2022-12-07T09:28:56;23.23;;;14.90;;
25169;SDS011;13129;48.012;10.352;2022-12-07T09:31:22;20.73;;;14.15;;
25169;SDS011;13129;48.012;10.352;2022-12-07T09:33:52;23.08;;;15.88;;
25169;SDS011;13129;48.012;10.352;2022-12-07T09:36:19;23.77;;;16.45;;
25169;SDS011;13129;48.012;10.352;2022-12-07T09:38:44;19.58;;;14.10;;
25169;SDS011;13129;48.012;10.352;2022-12-07T09:41:10;18.75;;;13.63;;
25169;SDS011;13129;48.012;10.352;2022-12-07T09:43:36;19.05;;;14.90;;
25169;SDS011;13129;48.012;10.352;2022-12-07T09:46:04;20.70;;;14.70;;
25169;SDS011;13129;48.012;10.352;2022-12-07T09:48:32;18.70;;;14.05;;
25169;SDS011;13129;48.012;10.352;2022-12-07T09:51:10;17.63;;;14.05;;
25169;SDS011;13129;48.012;10.352;2022-12-07T09:53:38;16.73;;;13.38;;
25169;SDS011;13129;48.012;10.352;2022-12-07T09:56:04;18.85;;;14.57;;
25169;SDS011;13129;48.012;10.352;2022-12-07T09:58:31;17.02;;;13.27;;
25169;SDS011;13129;48.012;10.352;2022-12-07T10:01:00;19.15;;;13.48;;
25169;SDS011;13129;48.012;10.352;2022-12-07T10:03:35;27.73;;;17.98;;
25169;SDS011;13129;48.012;10.352;2022-12-07T10:06:03;39.58;;;21.23;;
25169;SDS011;13129;48.012;10.352;2022-12-07T10:08:30;35.83;;;20.40;;
25169;SDS011;13129;48.012;10.352;2022-12-07T10:10:56;19.15;;;15.00;;
25169;SDS011;13129;48.012;10.352;2022-12-07T10:13:34;20.83;;;14.02;;
25169;SDS011;13129;48.012;10.352;2022-12-07T10:16:04;17.77;;;13.43;;
25169;SDS011;13129;48.012;10.352;2022-12-07T10:18:34;17.52;;;13.15;;
25169;SDS011;13129;48.012;10.352;2022-12-07T10:26:38;16.73;;;12.95;;
25169;SDS011;13129;48.012;10.352;2022-12-07T10:31:52;16.05;;;12.23;;
25169;SDS011;13129;48.012;10.352;2022-12-07T10:36:49;16.67;;;12.05;;
25169;SDS011;13129;48.012;10.352;2022-12-07T10:39:17;15.55;;;12.02;;
25169;SDS011;13129;48.012;10.352;2022-12-07T10:41:55;21.02;;;14.98;;
25169;SDS011;13129;48.012;10.352;2022-12-07T10:44:31;16.67;;;12.05;;
25169;SDS011;13129;48.012;10.352;2022-12-07T10:47:01;30.58;;;21.25;;
25169;SDS011;13129;48.012;10.352;2022-12-07T11:00:21;15.32;;;12.35;;
25169;SDS011;13129;48.012;10.352;2022-12-07T11:03:08;12.57;;;11.02;;
25169;SDS011;13129;48.012;10.352;2022-12-07T11:05:59;12.65;;;10.60;;
25169;SDS011;13129;48.012;10.352;2022-12-07T11:12:15;12.63;;;10.68;;
25169;SDS011;13129;48.012;10.352;2022-12-07T11:28:43;14.77;;;12.02;;
25169;SDS011;13129;48.012;10.352;2022-12-07T11:37:31;11.50;;;9.32;;
25169;SDS011;13129;48.012;10.352;2022-12-07T11:40:03;10.60;;;9.50;;
25169;SDS011;13129;48.012;10.352;2022-12-07T11:42:39;11.70;;;10.23;;
25169;SDS011;13129;48.012;10.352;2022-12-07T11:45:16;12.40;;;10.35;;
25169;SDS011;13129;48.012;10.352;2022-12-07T11:48:01;11.82;;;9.65;;
25169;SDS011;13129;48.012;10.352;2022-12-07T11:50:38;11.95;;;10.15;;
25169;SDS011;13129;48.012;10.352;2022-12-07T11:53:19;13.25;;;10.80;;
25169;SDS011;13129;48.012;10.352;2022-12-07T12:06:34;12.05;;;10.23;;
25169;SDS011;13129;48.012;10.352;2022-12-07T12:09:05;12.10;;;9.63;;
25169;SDS011;13129;48.012;10.352;2022-12-07T12:23:17;16.45;;;13.15;;
25169;SDS011;13129;48.012;10.352;2022-12-07T12:25:50;12.48;;;10.40;;
25169;SDS011;13129;48.012;10.352;2022-12-07T12:31:04;14.15;;;11.23;;
25169;SDS011;13129;48.012;10.352;2022-12-07T12:33:30;10.75;;;9.00;;
25169;SDS011;13129;48.012;10.352;2022-12-07T12:51:46;14.40;;;11.55;;
25169;SDS011;13129;48.012;10.352;2022-12-07T13:10:53;14.88;;;11.80;;
25169;SDS011;13129;48.012;10.352;2022-12-07T13:18:39;13.27;;;10.85;;
25169;SDS011;13129;48.012;10.352;2022-12-07T13:28:45;15.00;;;12.10;;
25169;SDS011;13129;48.012;10.352;2022-12-07T13:33:45;12.70;;;10.57;;
25169;SDS011;13129;48.012;10.352;2022-12-07T13:36:17;14.25;;;11.15;;
25169;SDS011;13129;48.012;10.352;2022-12-07T13:38:55;14.55;;;12.35;;
25169;SDS011;13129;48.012;10.352;2022-12-07T13:41:23;12.48;;;10.27;;
25169;SDS011;13129;48.012;10.352;2022-12-07T13:49:37;12.82;;;9.00;;
25169;SDS011;13129;48.012;10.352;2022-12-07T13:52:15;15.13;;;10.10;;
25169;SDS011;13129;48.012;10.352;2022-12-07T13:55:28;12.95;;;9.68;;
25169;SDS011;13129;48.012;10.352;2022-12-07T13:57:29;13.48;;;11.18;;
25169;SDS011;13129;48.012;10.352;2022-12-07T13:59:57;13.52;;;10.30;;
25169;SDS011;13129;48.012;10.352;2022-12-07T14:02:28;14.65;;;11.82;;
25169;SDS011;13129;48.012;10.352;2022-12-07T14:10:28;14.48;;;12.32;;
25169;SDS011;13129;48.012;10.352;2022-12-07T14:13:00;12.40;;;10.88;;
25169;SDS011;13129;48.012;10.352;2022-12-07T14:15:31;15.77;;;11.52;;
25169;SDS011;13129;48.012;10.352;2022-12-07T14:17:59;14.88;;;11.25;;
25169;SDS011;13129;48.012;10.352;2022-12-07T14:20:35;15.05;;;10.50;;
25169;SDS011;13129;48.012;10.352;2022-12-07T14:23:03;15.27;;;10.75;;
25169;SDS011;13129;48.012;10.352;2022-12-07T14:26:03;12.75;;;9.90;;
25169;SDS011;13129;48.012;10.352;2022-12-07T14:28:30;12.82;;;9.93;;
25169;SDS011;13129;48.012;10.352;2022-12-07T14:30:58;12.02;;;9.55;;
25169;SDS011;13129;48.012;10.352;2022-12-07T14:33:25;12.02;;;10.55;;
25169;SDS011;13129;48.012;10.352;2022-12-07T14:35:51;13.25;;;9.77;;
25169;SDS011;13129;48.012;10.352;2022-12-07T14:38:20;13.38;;;10.27;;
25169;SDS011;13129;48.012;10.352;2022-12-07T14:40:46;15.43;;;10.45;;
25169;SDS011;13129;48.012;10.352;2022-12-07T14:43:14;15.98;;;11.07;;
25169;SDS011;13129;48.012;10.352;2022-12-07T14:45:41;17.42;;;13.27;;
25169;SDS011;13129;48.012;10.352;2022-12-07T14:48:07;17.40;;;11.98;;
25169;SDS011;13129;48.012;10.352;2022-12-07T14:50:37;16.67;;;13.20;;
25169;SDS011;13129;48.012;10.352;2022-12-07T14:53:13;33.00;;;22.05;;
25169;SDS011;13129;48.012;10.352;2022-12-07T14:55:40;26.77;;;19.50;;
25169;SDS011;13129;48.012;10.352;2022-12-07T14:58:08;17.92;;;13.20;;
25169;SDS011;13129;48.012;10.352;2022-12-07T15:00:38;27.10;;;19.65;;
25169;SDS011;13129;48.012;10.352;2022-12-07T15:03:04;29.52;;;22.55;;
25169;SDS011;13129;48.012;10.352;2022-12-07T15:05:30;30.77;;;24.90;;
25169;SDS011;13129;48.012;10.352;2022-12-07T15:07:55;32.00;;;25.77;;
25169;SDS011;13129;48.012;10.352;2022-12-07T15:10:22;23.92;;;17.48;;
25169;SDS011;13129;48.012;10.352;2022-12-07T15:12:55;23.30;;;18.58;;
25169;SDS011;13129;48.012;10.352;2022-12-07T15:15:41;36.70;;;28.20;;
25169;SDS011;13129;48.012;10.352;2022-12-07T15:18:07;30.08;;;24.15;;
25169;SDS011;13129;48.012;10.352;2022-12-07T15:20:32;27.92;;;20.15;;
25169;SDS011;13129;48.012;10.352;2022-12-07T15:22:58;19.75;;;14.90;;
25169;SDS011;13129;48.012;10.352;2022-12-07T15:25:24;16.30;;;12.75;;
25169;SDS011;13129;48.012;10.352;2022-12-07T15:27:49;16.48;;;12.90;;
25169;SDS011;13129;48.012;10.352;2022-12-07T15:30:15;16.75;;;13.00;;
25169;SDS011;13129;48.012;10.352;2022-12-07T15:32:41;16.33;;;12.25;;
25169;SDS011;13129;48.012;10.352;2022-12-07T15:35:07;19.60;;;12.73;;
25169;SDS011;13129;48.012;10.352;2022-12-07T15:37:32;16.98;;;13.52;;
25169;SDS011;13129;48.012;10.352;2022-12-07T15:39:58;17.50;;;14.18;;
25169;SDS011;13129;48.012;10.352;2022-12-07T15:42:24;20.48;;;15.80;;
25169;SDS011;13129;48.012;10.352;2022-12-07T15:44:50;36.40;;;21.98;;
25169;SDS011;13129;48.012;10.352;2022-12-07T15:47:34;31.83;;;22.70;;
25169;SDS011;13129;48.012;10.352;2022-12-07T15:50:06;31.92;;;21.17;;
25169;SDS011;13129;48.012;10.352;2022-12-07T15:52:33;22.00;;;16.20;;
25169;SDS011;13129;48.012;10.352;2022-12-07T15:54:58;20.35;;;14.98;;
25169;SDS011;13129;48.012;10.352;2022-12-07T15:57:30;20.20;;;14.32;;
25169;SDS011;13129;48.012;10.352;2022-12-07T15:59:57;19.33;;;14.95;;
25169;SDS011;13129;48.012;10.352;2022-12-07T16:02:23;22.35;;;16.52;;
25169;SDS011;13129;48.012;10.352;2022-12-07T16:04:50;24.42;;;16.60;;
25169;SDS011;13129;48.012;10.352;2022-12-07T16:07:16;22.77;;;15.60;;
25169;SDS011;13129;48.012;10.352;2022-12-07T16:09:43;23.45;;;15.65;;
25169;SDS011;13129;48.012;10.352;2022-12-07T16:12:09;23.75;;;16.33;;
25169;SDS011;13129;48.012;10.352;2022-12-07T16:14:36;25.67;;;18.90;;
25169;SDS011;13129;48.012;10.352;2022-12-07T16:17:02;24.38;;;17.52;;
25169;SDS011;13129;48.012;10.352;2022-12-07T16:19:29;26.15;;;18.88;;
25169;SDS011;13129;48.012;10.352;2022-12-07T16:21:55;25.38;;;19.17;;
25169;SDS011;13129;48.012;10.352;2022-12-07T16:24:21;25.13;;;18.20;;
25169;SDS011;13129;48.012;10.352;2022-12-07T16:26:47;25.80;;;19.48;;
25169;SDS011;13129;48.012;10.352;2022-12-07T16:29:14;25.77;;;19.48;;
25169;SDS011;13129;48.012;10.352;2022-12-07T16:31:40;26.05;;;18.20;;
25169;SDS011;13129;48.012;10.352;2022-12-07T16:34:06;21.27;;;17.60;;
25169;SDS011;13129;48.012;10.352;2022-12-07T16:36:32;24.60;;;17.27;;
25169;SDS011;13129;48.012;10.352;2022-12-07T16:38:58;24.90;;;18.15;;
25169;SDS011;13129;48.012;10.352;2022-12-07T16:41:24;25.23;;;17.15;;
25169;SDS011;13129;48.012;10.352;2022-12-07T16:43:50;20.35;;;15.90;;
25169;SDS011;13129;48.012;10.352;2022-12-07T16:46:16;22.20;;;15.52;;
25169;SDS011;13129;48.012;10.352;2022-12-07T16:48:42;19.90;;;16.45;;
25169;SDS011;13129;48.012;10.352;2022-12-07T16:51:09;19.45;;;15.18;;
25169;SDS011;13129;48.012;10.352;2022-12-07T16:53:36;63.72;;;35.95;;
25169;SDS011;13129;48.012;10.352;2022-12-07T16:56:04;40.90;;;26.00;;
25169;SDS011;13129;48.012;10.352;2022-12-07T16:58:34;101.68;;;58.08;;
25169;SDS011;13129;48.012;10.352;2022-12-07T17:01:07;124.07;;;67.45;;
25169;SDS011;13129;48.012;10.352;2022-12-07T17:03:40;33.78;;;22.23;;
25169;SDS011;13129;48.012;10.352;2022-12-07T17:06:39;22.08;;;16.65;;
25169;SDS011;13129;48.012;10.352;2022-12-07T17:08:57;25.75;;;19.05;;
25169;SDS011;13129;48.012;10.352;2022-12-07T17:11:25;27.10;;;19.58;;
25169;SDS011;13129;48.012;10.352;2022-12-07T17:13:52;27.48;;;21.98;;
25169;SDS011;13129;48.012;10.352;2022-12-07T17:16:36;36.03;;;27.52;;
25169;SDS011;13129;48.012;10.352;2022-12-07T17:19:03;24.83;;;18.10;;
25169;SDS011;13129;48.012;10.352;2022-12-07T17:21:33;31.67;;;22.00;;
25169;SDS011;13129;48.012;10.352;2022-12-07T17:23:59;30.38;;;19.02;;
25169;SDS011;13129;48.012;10.352;2022-12-07T17:26:26;44.53;;;28.23;;
25169;SDS011;13129;48.012;10.352;2022-12-07T17:28:52;32.33;;;21.80;;
25169;SDS011;13129;48.012;10.352;2022-12-07T17:31:19;31.40;;;21.52;;
25169;SDS011;13129;48.012;10.352;2022-12-07T17:33:46;46.25;;;31.67;;
25169;SDS011;13129;48.012;10.352;2022-12-07T17:36:17;30.05;;;21.15;;
25169;SDS011;13129;48.012;10.352;2022-12-07T17:38:47;33.83;;;23.00;;
25169;SDS011;13129;48.012;10.352;2022-12-07T17:41:15;34.20;;;25.10;;
25169;SDS011;13129;48.012;10.352;2022-12-07T17:44:01;41.03;;;27.52;;
25169;SDS011;13129;48.012;10.352;2022-12-07T17:46:29;38.70;;;26.02;;
25169;SDS011;13129;48.012;10.352;2022-12-07T17:48:55;35.10;;;24.77;;
25169;SDS011;13129;48.012;10.352;2022-12-07T17:51:22;37.80;;;25.00;;
25169;SDS011;13129;48.012;10.352;2022-12-07T17:54:06;39.08;;;29.30;;
25169;SDS011;13129;48.012;10.352;2022-12-07T17:56:31;36.50;;;28.08;;
25169;SDS011;13129;48.012;10.352;2022-12-07T17:58:57;33.00;;;23.67;;
25169;SDS011;13129;48.012;10.352;2022-12-07T18:01:23;29.20;;;22.13;;
25169;SDS011;13129;48.012;10.352;2022-12-07T18:03:48;29.08;;;23.27;;
25169;SDS011;13129;48.012;10.352;2022-12-07T18:06:14;28.38;;;21.55;;
25169;SDS011;13129;48.012;10.352;2022-12-07T18:08:39;22.23;;;15.82;;
25169;SDS011;13129;48.012;10.352;2022-12-07T18:11:07;23.70;;;17.35;;
25169;SDS011;13129;48.012;10.352;2022-12-07T18:13:36;29.02;;;21.80;;
25169;SDS011;13129;48.012;10.352;2022-12-07T18:16:04;31.90;;;25.10;;
25169;SDS011;13129;48.012;10.352;2022-12-07T18:18:32;29.25;;;25.58;;
25169;SDS011;13129;48.012;10.352;2022-12-07T18:21:00;33.35;;;25.60;;
25169;SDS011;13129;48.012;10.352;2022-12-07T18:23:28;31.35;;;27.23;;
25169;SDS011;13129;48.012;10.352;2022-12-07T18:25:54;30.55;;;23.92;;
25169;SDS011;13129;48.012;10.352;2022-12-07T18:28:19;30.40;;;25.95;;
25169;SDS011;13129;48.012;10.352;2022-12-07T18:30:45;19.65;;;15.88;;
25169;SDS011;13129;48.012;10.352;2022-12-07T18:33:18;20.50;;;15.80;;
25169;SDS011;13129;48.012;10.352;2022-12-07T18:35:45;29.00;;;24.80;;
25169;SDS011;13129;48.012;10.352;2022-12-07T18:38:13;30.00;;;22.20;;
25169;SDS011;13129;48.012;10.352;2022-12-07T18:40:39;26.17;;;23.35;;
25169;SDS011;13129;48.012;10.352;2022-12-07T18:43:06;23.45;;;18.08;;
25169;SDS011;13129;48.012;10.352;2022-12-07T18:45:38;19.08;;;15.13;;
25169;SDS011;13129;48.012;10.352;2022-12-07T18:48:06;19.42;;;15.68;;
25169;SDS011;13129;48.012;10.352;2022-12-07T18:50:32;19.27;;;12.65;;
25169;SDS011;13129;48.012;10.352;2022-12-07T18:52:59;20.90;;;14.05;;
25169;SDS011;13129;48.012;10.352;2022-12-07T18:55:26;18.67;;;14.65;;
25169;SDS011;13129;48.012;10.352;2022-12-07T18:57:53;18.02;;;14.88;;
25169;SDS011;13129;48.012;10.352;2022-12-07T19:00:20;20.35;;;15.00;;
25169;SDS011;13129;48.012;10.352;2022-12-07T19:02:47;22.58;;;16.85;;
25169;SDS011;13129;48.012;10.352;2022-12-07T19:05:13;25.33;;;18.73;;
25169;SDS011;13129;48.012;10.352;2022-12-07T19:07:39;25.13;;;17.92;;
25169;SDS011;13129;48.012;10.352;2022-12-07T19:10:05;25.92;;;20.67;;
25169;SDS011;13129;48.012;10.352;2022-12-07T19:12:32;28.40;;;19.88;;
25169;SDS011;13129;48.012;10.352;2022-12-07T19:14:58;21.02;;;13.95;;
25169;SDS011;13129;48.012;10.352;2022-12-07T19:17:24;18.55;;;13.65;;
25169;SDS011;13129;48.012;10.352;2022-12-07T19:19:50;17.65;;;12.77;;
25169;SDS011;13129;48.012;10.352;2022-12-07T19:22:17;17.00;;;12.52;;
25169;SDS011;13129;48.012;10.352;2022-12-07T19:24:44;16.38;;;11.95;;
25169;SDS011;13129;48.012;10.352;2022-12-07T19:27:12;18.98;;;12.90;;
25169;SDS011;13129;48.012;10.352;2022-12-07T19:29:38;18.38;;;12.07;;
25169;SDS011;13129;48.012;10.352;2022-12-07T19:32:05;16.73;;;12.63;;
25169;SDS011;13129;48.012;10.352;2022-12-07T19:34:33;17.98;;;12.80;;
25169;SDS011;13129;48.012;10.352;2022-12-07T19:37:00;21.50;;;13.48;;
25169;SDS011;13129;48.012;10.352;2022-12-07T19:39:26;20.65;;;13.98;;
25169;SDS011;13129;48.012;10.352;2022-12-07T19:41:52;18.80;;;14.63;;
25169;SDS011;13129;48.012;10.352;2022-12-07T19:44:18;27.25;;;17.48;;
25169;SDS011;13129;48.012;10.352;2022-12-07T19:46:52;27.00;;;17.90;;
25169;SDS011;13129;48.012;10.352;2022-12-07T19:49:20;25.33;;;17.52;;
25169;SDS011;13129;48.012;10.352;2022-12-07T19:51:48;22.33;;;15.73;;
25169;SDS011;13129;48.012;10.352;2022-12-07T19:54:16;23.98;;;15.98;;
25169;SDS011;13129;48.012;10.352;2022-12-07T19:56:43;25.20;;;16.73;;
25169;SDS011;13129;48.012;10.352;2022-12-07T19:59:10;23.55;;;16.20;;
25169;SDS011;13129;48.012;10.352;2022-12-07T20:01:37;29.70;;;18.95;;
25169;SDS011;13129;48.012;10.352;2022-12-07T20:04:05;24.15;;;17.30;;
25169;SDS011;13129;48.012;10.352;2022-12-07T20:06:32;24.77;;;18.52;;
25169;SDS011;13129;48.012;10.352;2022-12-07T20:08:58;29.95;;;22.27;;
25169;SDS011;13129;48.012;10.352;2022-12-07T20:11:24;35.28;;;23.75;;
25169;SDS011;13129;48.012;10.352;2022-12-07T20:14:08;33.65;;;23.80;;
25169;SDS011;13129;48.012;10.352;2022-12-07T20:16:36;35.17;;;25.48;;
25169;SDS011;13129;48.012;10.352;2022-12-07T20:19:04;35.75;;;24.45;;
25169;SDS011;13129;48.012;10.352;2022-12-07T20:21:33;34.42;;;25.65;;
25169;SDS011;13129;48.012;10.352;2022-12-07T20:24:00;37.00;;;24.65;;
25169;SDS011;13129;48.012;10.352;2022-12-07T20:26:26;37.35;;;25.88;;
25169;SDS011;13129;48.012;10.352;2022-12-07T20:28:52;33.65;;;23.60;;
25169;SDS011;13129;48.012;10.352;2022-12-07T20:31:18;33.03;;;23.70;;
25169;SDS011;13129;48.012;10.352;2022-12-07T20:33:44;33.17;;;23.20;;
25169;SDS011;13129;48.012;10.352;2022-12-07T20:36:10;29.77;;;21.65;;
25169;SDS011;13129;48.012;10.352;2022-12-07T20:38:37;29.67;;;22.17;;
25169;SDS011;13129;48.012;10.352;2022-12-07T20:41:04;33.33;;;22.92;;
25169;SDS011;13129;48.012;10.352;2022-12-07T20:43:31;38.83;;;25.55;;
25169;SDS011;13129;48.012;10.352;2022-12-07T20:45:58;40.83;;;24.60;;
25169;SDS011;13129;48.012;10.352;2022-12-07T20:48:24;43.08;;;27.27;;
25169;SDS011;13129;48.012;10.352;2022-12-07T20:50:50;38.83;;;24.90;;
25169;SDS011;13129;48.012;10.352;2022-12-07T20:53:16;40.45;;;24.45;;
25169;SDS011;13129;48.012;10.352;2022-12-07T20:55:42;32.75;;;23.50;;
25169;SDS011;13129;48.012;10.352;2022-12-07T20:58:08;32.70;;;22.95;;
25169;SDS011;13129;48.012;10.352;2022-12-07T21:00:34;28.88;;;20.25;;
25169;SDS011;13129;48.012;10.352;2022-12-07T21:03:01;25.30;;;18.35;;
25169;SDS011;13129;48.012;10.352;2022-12-07T21:05:28;33.38;;;23.70;;
25169;SDS011;13129;48.012;10.352;2022-12-07T21:07:54;36.75;;;26.05;;
25169;SDS011;13129;48.012;10.352;2022-12-07T21:10:20;33.80;;;23.58;;
25169;SDS011;13129;48.012;10.352;2022-12-07T21:12:45;25.30;;;19.15;;
25169;SDS011;13129;48.012;10.352;2022-12-07T21:15:11;25.98;;;19.90;;
25169;SDS011;13129;48.012;10.352;2022-12-07T21:17:37;26.23;;;18.23;;
25169;SDS011;13129;48.012;10.352;2022-12-07T21:20:03;24.95;;;17.80;;
25169;SDS011;13129;48.012;10.352;2022-12-07T21:22:29;24.83;;;17.63;;
25169;SDS011;13129;48.012;10.352;2022-12-07T21:24:55;25.38;;;17.48;;
25169;SDS011;13129;48.012;10.352;2022-12-07T21:27:20;29.05;;;19.65;;
25169;SDS011;13129;48.012;10.352;2022-12-07T21:29:46;24.13;;;18.05;;
25169;SDS011;13129;48.012;10.352;2022-12-07T21:32:12;24.80;;;19.02;;
25169;SDS011;13129;48.012;10.352;2022-12-07T21:34:39;26.17;;;17.83;;
25169;SDS011;13129;48.012;10.352;2022-12-07T21:37:04;25.13;;;18.17;;
25169;SDS011;13129;48.012;10.352;2022-12-07T21:39:31;39.63;;;27.17;;
25169;SDS011;13129;48.012;10.352;2022-12-07T21:41:56;30.77;;;20.02;;
25169;SDS011;13129;48.012;10.352;2022-12-07T21:44:22;30.95;;;19.92;;
25169;SDS011;13129;48.012;10.352;2022-12-07T21:46:47;28.65;;;20.35;;
25169;SDS011;13129;48.012;10.352;2022-12-07T21:49:13;33.58;;;22.08;;